Time;durP1;ratioP1;P1;durP2;ratioP2;P2;SDS_P1;SDS_P2;PMS_P1;PMS_P2;Temp;Humidity;BMP_temperature;BMP_pressure;BME280_temperature;BME280_humidity;BME280_pressure;Samples;Min_cycle;Max_cycle;Signal;HPM_P1;HPM_P2
2024/03/13 00:00:13;;;;;;;277.65;261.55;;;13.50;99.90;;;;;;5044406;28;20044;-74
2024/03/13 00:02:41;;;;;;;290.48;274.15;;;13.40;99.90;;;;;;5048375;28;20041;-75
2024/03/13 00:05:10;;;;;;;297.20;280.27;;;13.40;99.90;;;;;;5032837;28;20057;-74
2024/03/13 00:07:37;;;;;;;297.80;280.77;;;13.40;99.90;;;;;;5049115;28;20048;-74
2024/03/13 00:10:06;;;;;;;323.25;304.27;;;13.40;99.90;;;;;;5040138;28;20049;-74
2024/03/13 00:12:34;;;;;;;330.05;311.05;;;13.50;99.90;;;;;;5051586;28;20045;-74
2024/03/13 00:15:02;;;;;;;320.15;300.67;;;13.50;99.90;;;;;;5051645;28;20047;-74
2024/03/13 00:17:28;;;;;;;321.65;302.00;;;13.50;99.90;;;;;;5048931;28;20040;-74
2024/03/13 00:19:57;;;;;;;305.33;286.80;;;13.50;99.90;;;;;;5052059;28;20064;-74
2024/03/13 00:22:24;;;;;;;303.38;284.90;;;13.50;99.90;;;;;;5051804;28;20048;-74
2024/03/13 00:24:51;;;;;;;307.75;289.30;;;13.40;99.90;;;;;;5053001;28;20032;-72
2024/03/13 00:27:17;;;;;;;285.88;269.83;;;13.40;99.90;;;;;;5040120;28;20041;-72
2024/03/13 00:29:46;;;;;;;224.20;211.85;;;13.40;99.90;;;;;;5032155;28;20412;-72
2024/03/13 00:32:14;;;;;;;280.95;264.15;;;13.40;99.90;;;;;;5048469;28;20495;-72
2024/03/13 00:34:47;;;;;;;302.13;282.63;;;13.40;99.90;;;;;;5052357;28;20052;-72
2024/03/13 00:37:13;;;;;;;336.50;315.00;;;13.40;99.90;;;;;;5040177;28;20041;-72
2024/03/13 00:39:41;;;;;;;397.77;371.75;;;13.40;99.90;;;;;;5030980;28;20041;-72
2024/03/13 00:42:11;;;;;;;382.70;357.67;;;13.50;99.90;;;;;;5051752;28;20396;-72
2024/03/13 00:44:39;;;;;;;393.50;367.33;;;13.50;99.90;;;;;;5051681;28;20049;-72
2024/03/13 00:47:06;;;;;;;400.60;373.98;;;13.50;99.90;;;;;;5038674;28;20042;-72
2024/03/13 00:49:33;;;;;;;423.00;394.95;;;13.50;99.90;;;;;;5032055;28;20029;-72
2024/03/13 00:51:59;;;;;;;370.52;347.20;;;13.50;99.90;;;;;;5043260;28;20044;-72
2024/03/13 00:54:27;;;;;;;367.02;343.67;;;13.50;99.90;;;;;;5051827;28;20039;-72
2024/03/13 00:56:56;;;;;;;372.77;348.20;;;13.50;99.90;;;;;;5041213;28;20049;-72
2024/03/13 00:59:23;;;;;;;363.73;339.77;;;13.50;99.90;;;;;;5030620;28;20045;-72
2024/03/13 01:01:51;;;;;;;371.30;346.38;;;13.50;99.90;;;;;;5042859;28;20033;-72
2024/03/13 01:04:18;;;;;;;339.73;316.50;;;13.50;99.90;;;;;;5051509;28;20036;-72
2024/03/13 01:06:45;;;;;;;357.63;333.05;;;13.50;99.90;;;;;;5050996;28;20044;-73
2024/03/13 01:09:11;;;;;;;346.52;323.13;;;13.50;99.90;;;;;;5050659;28;20491;-72
2024/03/13 01:11:37;;;;;;;353.30;329.20;;;13.50;99.90;;;;;;5039702;28;20037;-73
2024/03/13 01:14:03;;;;;;;347.70;323.85;;;13.50;99.90;;;;;;5032455;28;20033;-72
2024/03/13 01:16:30;;;;;;;369.83;345.52;;;13.60;99.90;;;;;;5050793;28;20036;-72
2024/03/13 01:18:57;;;;;;;358.52;334.52;;;13.50;99.90;;;;;;5052139;28;20029;-72
2024/03/13 01:21:23;;;;;;;330.70;309.25;;;13.50;99.90;;;;;;5051486;28;20163;-72
2024/03/13 01:23:49;;;;;;;339.92;317.58;;;13.40;99.90;;;;;;5052109;28;20040;-72
2024/03/13 01:26:16;;;;;;;342.23;319.02;;;13.40;99.90;;;;;;5049353;28;20044;-72
2024/03/13 01:28:44;;;;;;;337.42;314.65;;;13.40;99.90;;;;;;5051774;28;20048;-72
2024/03/13 01:31:11;;;;;;;316.35;295.00;;;13.50;99.90;;;;;;5050018;28;20033;-72
2024/03/13 01:33:38;;;;;;;284.75;265.95;;;13.50;99.90;;;;;;5051579;28;20025;-72
2024/03/13 01:36:05;;;;;;;296.65;276.10;;;13.50;99.90;;;;;;5051067;28;20049;-72
2024/03/13 01:38:31;;;;;;;305.13;284.50;;;13.50;99.90;;;;;;5049048;28;20044;-72
2024/03/13 01:58:07;;;;;;;263.92;247.63;;;13.50;99.90;;;;;;5037433;28;20029;-74
2024/03/13 02:03:22;;;;;;;256.88;241.10;;;13.50;99.90;;;;;;5056373;28;20029;-74
2024/03/13 02:05:51;;;;;;;273.55;256.05;;;13.60;99.90;;;;;;5047704;28;20038;-74
2024/03/13 02:08:18;;;;;;;277.85;260.83;;;13.50;99.90;;;;;;5048807;28;20503;-74
2024/03/13 02:10:45;;;;;;;294.15;275.83;;;13.50;99.90;;;;;;5046559;28;20380;-74
2024/03/13 02:13:12;;;;;;;300.80;281.35;;;13.50;99.90;;;;;;5036943;28;20460;-74
2024/03/13 02:15:42;;;;;;;298.77;278.98;;;13.40;99.90;;;;;;5050946;28;20037;-74
2024/03/13 02:18:19;;;;;;;289.92;270.98;;;13.30;99.90;;;;;;5055012;28;20060;-74
2024/03/13 02:20:46;;;;;;;288.83;269.88;;;13.40;99.90;;;;;;5054129;28;20045;-74
2024/03/13 02:23:23;;;;;;;304.73;285.35;;;13.40;99.90;;;;;;5035193;28;20037;-74
2024/03/13 02:25:51;;;;;;;298.38;279.27;;;13.50;99.90;;;;;;5041293;28;20041;-74
2024/03/13 02:28:29;;;;;;;337.08;315.08;;;13.50;99.90;;;;;;5055060;28;20383;-74
2024/03/13 02:30:55;;;;;;;348.85;325.80;;;13.50;99.90;;;;;;5054038;28;20045;-74
2024/03/13 02:33:21;;;;;;;314.27;295.27;;;13.50;99.90;;;;;;5054848;28;20037;-74
2024/03/13 02:35:47;;;;;;;295.70;278.13;;;13.50;99.90;;;;;;5054287;28;20040;-74
2024/03/13 02:38:13;;;;;;;239.07;225.45;;;13.50;99.90;;;;;;5052780;28;20490;-74
2024/03/13 02:40:40;;;;;;;275.42;258.58;;;13.50;99.90;;;;;;5052994;28;20036;-74
2024/03/13 02:43:06;;;;;;;219.70;207.55;;;13.50;99.90;;;;;;5054760;28;20044;-74
2024/03/13 02:45:32;;;;;;;242.98;228.93;;;13.40;99.90;;;;;;5052574;28;20471;-75
2024/03/13 02:47:59;;;;;;;213.20;200.93;;;13.50;99.90;;;;;;5034557;28;20029;-74
2024/03/13 02:50:25;;;;;;;279.13;262.52;;;13.50;99.90;;;;;;5033253;28;20053;-74
2024/03/13 02:52:51;;;;;;;350.42;328.23;;;13.50;99.90;;;;;;5054882;28;20045;-72
2024/03/13 02:55:18;;;;;;;397.23;370.92;;;13.50;99.90;;;;;;5054148;28;20032;-72
2024/03/13 02:57:45;;;;;;;426.95;398.33;;;13.50;99.90;;;;;;5048787;28;20032;-72
2024/03/13 03:00:12;;;;;;;396.73;370.60;;;13.50;99.90;;;;;;5041714;28;20052;-72
2024/03/13 03:02:40;;;;;;;406.65;379.85;;;13.40;99.90;;;;;;5037217;28;20013;-72
2024/03/13 03:05:06;;;;;;;391.67;366.02;;;13.40;99.90;;;;;;5035019;28;20029;-72
2024/03/13 03:07:33;;;;;;;412.40;384.90;;;13.40;99.90;;;;;;5036951;28;20017;-72
2024/03/13 03:09:59;;;;;;;379.60;354.55;;;13.40;99.90;;;;;;5052970;28;20032;-72
2024/03/13 03:12:26;;;;;;;403.00;376.35;;;13.40;99.90;;;;;;5052667;28;20037;-72
2024/03/13 03:14:55;;;;;;;384.83;359.35;;;13.50;99.90;;;;;;5041490;28;20048;-72
2024/03/13 03:17:22;;;;;;;378.63;354.05;;;13.50;99.90;;;;;;5032604;28;20396;-72
2024/03/13 03:19:51;;;;;;;369.48;346.00;;;13.50;99.90;;;;;;5030636;28;20503;-72
2024/03/13 03:22:20;;;;;;;377.95;352.75;;;13.50;99.90;;;;;;5048241;28;20033;-72
2024/03/13 03:24:46;;;;;;;381.73;356.58;;;13.40;99.90;;;;;;5032717;28;20040;-72
2024/03/13 03:27:12;;;;;;;306.70;287.77;;;13.40;99.90;;;;;;5046575;28;20030;-72
2024/03/13 03:29:41;;;;;;;281.23;264.52;;;13.30;99.90;;;;;;5032905;28;20505;-72
2024/03/13 03:32:08;;;;;;;276.38;260.20;;;13.30;99.90;;;;;;5047746;28;20040;-72
2024/03/13 03:34:39;;;;;;;317.05;297.83;;;13.30;99.90;;;;;;5052622;28;20045;-72
2024/03/13 03:37:06;;;;;;;294.98;276.90;;;13.30;99.90;;;;;;5043578;28;20038;-73
2024/03/13 03:39:35;;;;;;;313.08;293.52;;;13.30;99.90;;;;;;5047088;28;20037;-72
2024/03/13 03:42:03;;;;;;;312.35;293.98;;;13.30;99.90;;;;;;5050143;28;20059;-72
2024/03/13 03:44:32;;;;;;;314.02;295.65;;;13.30;99.90;;;;;;5053157;28;20052;-72
2024/03/13 03:46:58;;;;;;;298.88;281.30;;;13.30;99.90;;;;;;5049087;28;20606;-72
2024/03/13 03:49:27;;;;;;;306.95;288.60;;;13.30;99.90;;;;;;5044609;28;20049;-72
2024/03/13 03:51:54;;;;;;;412.60;385.83;;;13.40;99.90;;;;;;5052606;28;20037;-72
2024/03/13 03:54:22;;;;;;;352.27;330.73;;;13.40;99.90;;;;;;5038108;28;20039;-72
2024/03/13 03:56:49;;;;;;;356.38;333.75;;;13.40;99.90;;;;;;5035540;28;20034;-72
2024/03/13 03:59:15;;;;;;;359.95;337.70;;;13.40;99.90;;;;;;5033693;28;20058;-72
2024/03/13 04:01:44;;;;;;;343.13;322.02;;;13.40;99.90;;;;;;5044665;28;20116;-72
2024/03/13 04:04:13;;;;;;;348.55;327.60;;;13.30;99.90;;;;;;5033348;28;20671;-72
2024/03/13 04:06:41;;;;;;;388.73;363.80;;;13.40;99.90;;;;;;5035766;28;20036;-72
2024/03/13 04:09:14;;;;;;;376.17;352.60;;;13.40;99.90;;;;;;5051575;28;20036;-74
2024/03/13 04:11:44;;;;;;;359.73;337.33;;;13.30;99.90;;;;;;5050404;28;20048;-74
2024/03/13 04:14:13;;;;;;;380.63;356.20;;;13.20;99.90;;;;;;5052284;28;20040;-75
2024/03/13 04:16:43;;;;;;;341.67;321.05;;;13.20;99.90;;;;;;5050317;28;20033;-74
2024/03/13 04:19:10;;;;;;;327.90;307.45;;;13.20;99.90;;;;;;5052509;28;20060;-74
2024/03/13 04:21:40;;;;;;;420.77;392.80;;;13.10;99.90;;;;;;5049440;28;20048;-74
2024/03/13 04:24:07;;;;;;;396.20;370.05;;;13.10;99.90;;;;;;5032838;28;20041;-74
2024/03/13 04:26:39;;;;;;;364.48;341.13;;;13.20;99.90;;;;;;5035059;28;20042;-74
2024/03/13 04:29:05;;;;;;;339.80;319.58;;;13.20;99.90;;;;;;5032167;28;20061;-74
2024/03/13 04:31:33;;;;;;;373.60;350.45;;;13.20;99.90;;;;;;5043298;28;20541;-74
2024/03/13 04:34:02;;;;;;;401.27;375.67;;;13.20;99.90;;;;;;5052756;28;20554;-74
2024/03/13 04:36:28;;;;;;;395.00;370.73;;;13.30;99.90;;;;;;5051434;28;20029;-74
2024/03/13 04:38:54;;;;;;;369.63;346.95;;;13.30;99.90;;;;;;5051353;28;20025;-74
2024/03/13 04:41:20;;;;;;;398.50;374.30;;;13.40;99.90;;;;;;5043810;28;20025;-74
2024/03/13 04:43:46;;;;;;;508.73;475.42;;;13.30;99.90;;;;;;5030905;28;20045;-74
2024/03/13 04:46:18;;;;;;;381.05;357.48;;;13.40;99.90;;;;;;5040163;28;20041;-74
2024/03/13 04:48:47;;;;;;;372.13;349.33;;;13.30;99.90;;;;;;5049126;28;20455;-74
2024/03/13 04:51:14;;;;;;;408.90;383.10;;;13.40;99.90;;;;;;5051825;28;20044;-74
2024/03/13 04:53:40;;;;;;;380.10;357.67;;;13.40;99.90;;;;;;5051804;28;20036;-74
2024/03/13 04:56:06;;;;;;;401.67;376.63;;;13.30;99.90;;;;;;5051582;28;20033;-74
2024/03/13 04:58:34;;;;;;;359.42;336.85;;;13.30;99.90;;;;;;5051488;28;20387;-74
2024/03/13 05:01:00;;;;;;;380.10;356.60;;;13.30;99.90;;;;;;5044162;28;20045;-74
2024/03/13 05:03:26;;;;;;;371.08;347.52;;;13.30;99.90;;;;;;5051641;28;20028;-74
2024/03/13 05:05:52;;;;;;;361.83;339.65;;;13.30;99.90;;;;;;5037955;28;20037;-74
2024/03/13 05:08:18;;;;;;;379.58;356.13;;;13.20;99.90;;;;;;5041280;28;20498;-75
2024/03/13 05:10:44;;;;;;;358.95;336.80;;;13.20;99.90;;;;;;5047009;28;20487;-74
2024/03/13 05:13:10;;;;;;;357.80;335.70;;;13.20;99.90;;;;;;5029764;28;20056;-72
2024/03/13 05:15:36;;;;;;;391.48;366.65;;;13.20;99.90;;;;;;5035454;28;20025;-72
2024/03/13 05:18:03;;;;;;;373.98;350.85;;;13.20;99.90;;;;;;5033841;28;20029;-72
2024/03/13 05:20:29;;;;;;;379.20;355.40;;;13.20;99.90;;;;;;5034453;28;20049;-72
2024/03/13 05:22:55;;;;;;;376.27;351.65;;;13.20;99.90;;;;;;5050034;28;20044;-72
2024/03/13 05:25:24;;;;;;;388.50;364.63;;;13.20;99.90;;;;;;5033581;28;20030;-72
2024/03/13 05:27:50;;;;;;;439.98;411.30;;;13.20;99.90;;;;;;5037346;28;20030;-72
2024/03/13 05:30:16;;;;;;;370.98;346.55;;;13.10;99.90;;;;;;5032045;28;20557;-72
2024/03/13 05:32:43;;;;;;;360.17;337.48;;;13.00;99.90;;;;;;5042310;28;20039;-72
2024/03/13 05:35:09;;;;;;;378.55;352.85;;;12.90;99.90;;;;;;5051113;28;20033;-72
2024/03/13 05:37:36;;;;;;;386.02;359.05;;;12.80;99.90;;;;;;5042425;28;20021;-72
2024/03/13 05:40:11;;;;;;;419.83;390.00;;;12.80;99.90;;;;;;5051757;28;20049;-72
2024/03/13 05:42:39;;;;;;;373.65;347.67;;;12.80;99.90;;;;;;5051791;28;20037;-72
2024/03/13 05:45:08;;;;;;;345.77;322.88;;;12.80;99.90;;;;;;5037529;28;20498;-72
2024/03/13 05:47:34;;;;;;;315.77;296.40;;;12.80;99.90;;;;;;5047324;28;20028;-72
2024/03/13 05:50:00;;;;;;;318.25;298.27;;;12.80;99.90;;;;;;5049593;28;20025;-72
2024/03/13 05:52:26;;;;;;;271.77;255.48;;;12.70;99.90;;;;;;5036559;28;20059;-73
2024/03/13 05:54:53;;;;;;;282.70;265.65;;;12.60;99.90;;;;;;5048575;28;20382;-72
2024/03/13 05:57:22;;;;;;;283.08;266.10;;;12.60;99.90;;;;;;5043954;28;20044;-72
2024/03/13 05:59:50;;;;;;;291.42;273.40;;;12.50;99.90;;;;;;5055637;28;20368;-72
2024/03/13 06:02:16;;;;;;;277.88;261.05;;;12.40;99.90;;;;;;5054005;28;20036;-72
2024/03/13 06:04:43;;;;;;;264.15;248.65;;;12.40;99.90;;;;;;5055671;28;20044;-72
2024/03/13 06:07:09;;;;;;;278.58;262.05;;;12.40;99.90;;;;;;5054898;28;20035;-72
2024/03/13 06:09:38;;;;;;;276.90;260.25;;;12.40;99.90;;;;;;5053941;28;20029;-72
2024/03/13 06:12:04;;;;;;;297.80;279.80;;;12.40;99.90;;;;;;5055467;28;20498;-73
2024/03/13 06:14:30;;;;;;;296.35;278.33;;;12.40;99.90;;;;;;5055523;28;20360;-72
2024/03/13 06:16:56;;;;;;;278.58;261.98;;;12.40;99.90;;;;;;5050485;28;20040;-72
2024/03/13 06:19:23;;;;;;;293.15;274.58;;;12.40;99.90;;;;;;5039549;28;20028;-73
2024/03/13 06:21:49;;;;;;;303.77;285.17;;;12.40;99.90;;;;;;5055409;28;20475;-72
2024/03/13 06:24:20;;;;;;;289.40;271.48;;;12.40;99.90;;;;;;5055010;28;20025;-72
2024/03/13 06:26:48;;;;;;;272.80;256.15;;;12.50;99.90;;;;;;5053410;28;20060;-73
2024/03/13 06:32:00;;;;;;;233.05;219.35;;;12.40;99.90;;;;;;5056735;28;20511;-79
2024/03/13 06:34:27;;;;;;;236.52;222.65;;;12.40;99.90;;;;;;5054828;28;20068;-79
2024/03/13 06:36:53;;;;;;;264.23;248.38;;;12.40;99.90;;;;;;5052833;28;20037;-79
2024/03/13 06:39:21;;;;;;;306.23;286.55;;;12.40;99.90;;;;;;5034628;28;20056;-78
2024/03/13 06:41:48;;;;;;;257.63;242.38;;;12.30;99.90;;;;;;5033151;28;20050;-79
2024/03/13 06:44:14;;;;;;;283.75;265.85;;;12.40;99.90;;;;;;5034681;28;20514;-79
2024/03/13 06:46:40;;;;;;;293.98;271.30;;;12.40;99.90;;;;;;5034639;28;20041;-79
2024/03/13 06:49:07;;;;;;;273.92;257.45;;;12.40;99.90;;;;;;5053860;28;20036;-78
2024/03/13 06:51:34;;;;;;;266.80;250.30;;;12.40;99.90;;;;;;5054931;28;20036;-79
2024/03/13 06:54:00;;;;;;;261.00;245.05;;;12.40;99.90;;;;;;5054452;28;20052;-79
2024/03/13 06:56:27;;;;;;;251.43;235.80;;;12.40;99.90;;;;;;5053467;28;20037;-80
2024/03/13 06:58:53;;;;;;;271.90;254.38;;;12.40;99.90;;;;;;5053603;28;20518;-78
2024/03/13 07:01:19;;;;;;;273.90;256.75;;;12.40;99.90;;;;;;5049996;28;20045;-79
2024/03/13 07:03:45;;;;;;;324.00;303.45;;;12.40;99.90;;;;;;5034142;28;20040;-80
2024/03/13 07:06:12;;;;;;;275.08;257.67;;;12.30;99.90;;;;;;5038899;28;20044;-82
2024/03/13 07:08:38;;;;;;;281.50;264.60;;;12.30;99.90;;;;;;5039017;28;20097;-78
2024/03/13 07:11:08;;;;;;;266.80;250.98;;;12.30;99.90;;;;;;5040995;28;20045;-79
2024/03/13 07:13:34;;;;;;;254.75;239.82;;;12.20;99.90;;;;;;5052950;28;20040;-81
2024/03/13 07:16:00;;;;;;;261.60;246.50;;;12.30;99.90;;;;;;5053453;28;20044;-78
2024/03/13 07:18:32;;;;;;;301.95;284.20;;;12.30;99.90;;;;;;5041944;28;20656;-81
2024/03/13 07:20:58;;;;;;;297.23;279.27;;;12.30;99.90;;;;;;5040087;28;20041;-81
2024/03/13 07:23:28;;;;;;;356.05;332.75;;;12.30;99.90;;;;;;5053872;28;20024;-80
2024/03/13 07:25:55;;;;;;;356.02;333.25;;;12.20;99.90;;;;;;5053896;28;20044;-81
2024/03/13 07:28:21;;;;;;;367.77;345.05;;;12.10;99.90;;;;;;5036264;28;20052;-79
2024/03/13 07:30:47;;;;;;;357.40;334.30;;;12.20;99.90;;;;;;5053267;28;20045;-81
2024/03/13 07:33:14;;;;;;;371.05;346.52;;;12.30;99.90;;;;;;5046103;28;20380;-81
2024/03/13 07:35:41;;;;;;;341.35;319.25;;;12.30;99.90;;;;;;5035284;28;20032;-80
2024/03/13 07:38:10;;;;;;;328.08;307.23;;;12.30;99.90;;;;;;5035758;28;20076;-72
2024/03/13 07:40:40;;;;;;;322.13;302.13;;;12.30;99.90;;;;;;5051173;28;20042;-71
2024/03/13 07:43:08;;;;;;;253.98;238.52;;;12.40;99.90;;;;;;5041679;28;20064;-73
2024/03/13 07:45:40;;;;;;;326.27;306.63;;;12.40;99.90;;;;;;5046428;28;20480;-72
2024/03/13 07:48:10;;;;;;;328.92;309.25;;;12.30;99.90;;;;;;5045575;28;20379;-73
2024/03/13 07:50:38;;;;;;;315.90;296.83;;;12.40;99.90;;;;;;5040690;28;20037;-73
2024/03/13 07:53:08;;;;;;;354.83;331.92;;;12.40;99.90;;;;;;5033355;28;20534;-73
2024/03/13 07:55:37;;;;;;;375.98;353.15;;;12.40;99.90;;;;;;5050511;28;20033;-73
2024/03/13 07:58:03;;;;;;;296.55;279.75;;;12.50;99.90;;;;;;5033946;28;20029;-73
2024/03/13 08:00:29;;;;;;;316.88;298.58;;;12.40;99.90;;;;;;5035205;28;20033;-73
2024/03/13 08:02:56;;;;;;;269.88;254.45;;;12.50;99.90;;;;;;5042128;28;20030;-72
2024/03/13 08:05:22;;;;;;;313.90;295.90;;;12.40;99.90;;;;;;5032332;28;20069;-72
2024/03/13 08:07:49;;;;;;;290.83;274.13;;;12.40;99.90;;;;;;5048901;28;20044;-73
2024/03/13 08:10:19;;;;;;;309.63;291.58;;;12.30;99.90;;;;;;5034850;28;20037;-73
2024/03/13 08:12:45;;;;;;;304.10;286.25;;;12.40;99.90;;;;;;5051879;28;20032;-73
2024/03/13 08:15:11;;;;;;;263.05;248.27;;;12.40;99.90;;;;;;5048493;28;20481;-73
2024/03/13 08:17:38;;;;;;;232.18;219.63;;;12.30;99.90;;;;;;5042946;28;20211;-72
2024/03/13 08:20:05;;;;;;;224.77;212.70;;;12.30;99.90;;;;;;5043334;28;20487;-72
2024/03/13 08:22:31;;;;;;;232.38;219.85;;;12.30;99.90;;;;;;5047589;28;20037;-78
2024/03/13 08:24:58;;;;;;;263.80;249.27;;;12.30;99.90;;;;;;5052833;28;20025;-75
2024/03/13 08:27:24;;;;;;;234.95;222.65;;;12.30;99.90;;;;;;5034096;28;20046;-76
2024/03/13 08:29:50;;;;;;;203.02;192.40;;;12.30;99.90;;;;;;5040979;28;20025;-76
2024/03/13 08:32:16;;;;;;;288.65;272.00;;;12.40;99.90;;;;;;5049498;28;20052;-81
2024/03/13 08:34:46;;;;;;;276.17;260.63;;;12.50;99.90;;;;;;5038764;28;20036;-79
2024/03/13 08:37:12;;;;;;;297.52;279.92;;;12.60;99.90;;;;;;5034265;28;20054;-78
2024/03/13 08:39:38;;;;;;;321.50;302.77;;;12.60;99.90;;;;;;5032442;28;20029;-78
2024/03/13 08:42:04;;;;;;;233.43;221.07;;;12.70;99.90;;;;;;5033935;28;20044;-81
2024/03/13 08:44:30;;;;;;;356.15;334.10;;;12.70;99.90;;;;;;5032518;28;20041;-79
2024/03/13 08:46:57;;;;;;;307.55;289.10;;;12.70;99.90;;;;;;5040631;28;20041;-77
2024/03/13 08:49:24;;;;;;;278.85;262.98;;;12.70;99.90;;;;;;5052219;28;20037;-78
2024/03/13 08:51:51;;;;;;;349.42;328.05;;;12.60;99.90;;;;;;5043986;28;20050;-77
2024/03/13 08:54:17;;;;;;;302.42;284.63;;;12.70;99.90;;;;;;5047238;28;20041;-83
2024/03/13 08:56:45;;;;;;;345.60;325.55;;;12.70;99.90;;;;;;5039579;28;20052;-72
2024/03/13 08:59:12;;;;;;;412.92;388.17;;;12.80;99.90;;;;;;5032693;28;20391;-74
2024/03/13 09:01:44;;;;;;;398.27;375.10;;;12.90;99.90;;;;;;5031446;28;20052;-73
2024/03/13 09:04:10;;;;;;;418.15;392.58;;;12.70;99.90;;;;;;5032125;28;20040;-73
2024/03/13 09:06:38;;;;;;;368.63;347.52;;;12.70;99.90;;;;;;5040171;28;20033;-74
2024/03/13 09:09:04;;;;;;;417.27;392.98;;;12.80;99.90;;;;;;5032178;28;20036;-76
2024/03/13 09:11:31;;;;;;;435.45;408.02;;;12.70;99.90;;;;;;5035068;28;20050;-77
2024/03/13 09:14:03;;;;;;;335.35;316.52;;;12.80;99.90;;;;;;5032347;28;20026;-76
2024/03/13 09:16:31;;;;;;;275.55;260.65;;;12.80;99.90;;;;;;5049645;28;20048;-75
2024/03/13 09:18:58;;;;;;;302.88;285.83;;;12.90;99.90;;;;;;5043130;28;20036;-74
2024/03/13 09:21:25;;;;;;;321.35;302.75;;;13.00;99.90;;;;;;5044402;28;20049;-74
2024/03/13 09:23:52;;;;;;;314.88;297.05;;;13.10;99.90;;;;;;5041742;28;20052;-75
2024/03/13 09:26:18;;;;;;;328.45;309.33;;;13.10;99.90;;;;;;5045778;28;20033;-75
2024/03/13 09:28:47;;;;;;;324.80;305.80;;;13.10;99.90;;;;;;5058682;28;20025;-74
2024/03/13 09:31:14;;;;;;;351.60;331.25;;;13.20;99.90;;;;;;5047294;28;20037;-74
2024/03/13 09:33:40;;;;;;;375.52;354.08;;;13.30;99.90;;;;;;5057717;28;20049;-76
2024/03/13 09:36:13;;;;;;;374.17;352.60;;;13.30;99.90;;;;;;5036607;28;20492;-75
2024/03/13 09:38:42;;;;;;;1583.72;828.97;;;13.40;99.90;;;;;;5053843;28;20491;-76
2024/03/13 09:41:13;;;;;;;1999.90;999.90;;;13.40;99.90;;;;;;5048994;28;20044;-74
2024/03/13 09:43:39;;;;;;;1999.90;999.90;;;13.50;99.90;;;;;;5040471;28;20041;-74
2024/03/13 09:46:07;;;;;;;1999.90;999.90;;;13.50;99.90;;;;;;5051176;28;20044;-77
2024/03/13 09:48:34;;;;;;;1999.90;999.90;;;13.60;99.90;;;;;;5047019;28;20044;-79
2024/03/13 09:51:00;;;;;;;1999.90;999.90;;;13.60;99.90;;;;;;5056377;28;20049;-76
2024/03/13 09:53:28;;;;;;;1999.90;999.90;;;13.60;99.90;;;;;;5057553;28;20116;-76
2024/03/13 09:55:54;;;;;;;1999.90;999.90;;;13.70;99.90;;;;;;5050881;28;20064;-77
2024/03/13 09:58:21;;;;;;;1999.90;999.90;;;13.70;99.90;;;;;;5036744;28;20415;-75
2024/03/13 10:00:47;;;;;;;1999.90;999.90;;;13.80;99.90;;;;;;5044477;28;20045;-78
2024/03/13 10:03:21;;;;;;;1999.90;999.90;;;13.80;99.90;;;;;;5043458;28;20029;-76
2024/03/13 10:06:04;;;;;;;1999.90;999.90;;;13.90;99.90;;;;;;5042210;28;20028;-76
2024/03/13 10:08:30;;;;;;;1999.90;999.90;;;14.00;99.90;;;;;;5055874;28;20026;-78
2024/03/13 10:11:00;;;;;;;1999.90;999.90;;;14.00;99.90;;;;;;5036564;28;20585;-76
2024/03/13 10:13:28;;;;;;;1999.90;999.90;;;14.10;99.90;;;;;;5036786;28;20048;-76
2024/03/13 10:15:54;;;;;;;1999.90;999.90;;;14.30;99.90;;;;;;5050703;28;20395;-77
2024/03/13 10:18:20;;;;;;;1999.90;999.90;;;14.30;99.90;;;;;;5036827;28;20037;-76
2024/03/13 10:20:49;;;;;;;1999.90;999.90;;;14.40;99.90;;;;;;5038408;28;20037;-74
2024/03/13 10:23:16;;;;;;;1999.90;999.90;;;14.40;99.90;;;;;;5042486;28;20025;-76
2024/03/13 10:25:43;;;;;;;1999.90;999.90;;;14.40;99.90;;;;;;5040288;28;20037;-76
2024/03/13 10:28:11;;;;;;;1999.90;999.90;;;14.50;99.90;;;;;;5052819;28;20070;-76
2024/03/13 10:30:37;;;;;;;1999.90;999.90;;;14.60;99.90;;;;;;5049508;28;20037;-76
2024/03/13 10:33:03;;;;;;;1999.90;999.90;;;14.60;99.90;;;;;;5056878;28;20033;-76
2024/03/13 10:35:30;;;;;;;1999.90;999.90;;;14.70;99.90;;;;;;5057473;28;20040;-76
2024/03/13 10:37:56;;;;;;;1999.90;999.90;;;14.80;99.90;;;;;;5045445;28;20040;-77
2024/03/13 10:40:24;;;;;;;1999.90;999.90;;;14.80;99.90;;;;;;5035145;28;20026;-76
2024/03/13 10:42:51;;;;;;;1999.90;999.90;;;14.90;99.90;;;;;;5046511;28;20045;-75
2024/03/13 10:45:17;;;;;;;1999.90;999.90;;;14.90;99.90;;;;;;5043757;28;20049;-75
2024/03/13 10:47:46;;;;;;;1999.90;999.90;;;15.00;99.90;;;;;;5051288;28;20396;-76
2024/03/13 10:50:12;;;;;;;1999.90;999.90;;;15.00;99.90;;;;;;5044054;28;20049;-73
2024/03/13 10:52:39;;;;;;;1999.90;999.90;;;14.70;99.90;;;;;;5054518;28;20025;-72
2024/03/13 10:55:07;;;;;;;1999.90;999.90;;;14.60;99.90;;;;;;5053932;28;20045;-72
2024/03/13 10:57:36;;;;;;;1999.90;999.90;;;14.90;99.90;;;;;;5041045;28;20045;-72
2024/03/13 11:00:17;;;;;;;1999.90;999.90;;;15.00;99.90;;;;;;5048250;28;20044;-71
2024/03/13 11:02:43;;;;;;;1999.90;999.90;;;15.30;99.90;;;;;;5053360;28;20060;-80
2024/03/13 11:05:14;;;;;;;1999.90;999.90;;;15.40;99.90;;;;;;5051933;28;20036;-82
2024/03/13 11:07:40;;;;;;;;;;;15.60;99.90;;;;;;5033881;28;20049;-81
2024/03/13 11:10:13;;;;;;;1999.90;999.90;;;15.60;99.90;;;;;;5047137;28;19904;-81
2024/03/13 11:12:45;;;;;;;1999.90;999.90;;;15.30;99.90;;;;;;5033455;28;20041;-76
2024/03/13 11:15:13;;;;;;;1999.90;999.90;;;15.10;99.90;;;;;;5036697;28;20049;-75
2024/03/13 11:17:39;;;;;;;1999.90;999.90;;;15.30;99.90;;;;;;5021703;28;20037;-76
2024/03/13 11:20:08;;;;;;;1999.90;999.90;;;15.30;99.90;;;;;;5053008;28;20025;-76
2024/03/13 11:22:35;;;;;;;1999.90;999.90;;;15.50;99.90;;;;;;5052844;28;20037;-76
2024/03/13 11:25:06;;;;;;;1999.90;999.90;;;15.40;99.90;;;;;;5052813;28;20048;-76
2024/03/13 11:27:33;;;;;;;1999.90;999.90;;;15.50;99.90;;;;;;5051618;28;20033;-76
2024/03/13 11:29:59;;;;;;;1999.90;999.90;;;15.60;99.90;;;;;;5040394;28;20029;-76
2024/03/13 11:32:25;;;;;;;1999.90;999.90;;;15.70;99.90;;;;;;5050383;28;20033;-75
2024/03/13 11:34:51;;;;;;;1999.90;999.90;;;15.70;99.90;;;;;;5047255;28;20398;-73
2024/03/13 11:37:18;;;;;;;1999.90;999.90;;;15.60;99.90;;;;;;5051495;28;20035;-75
2024/03/13 11:39:44;;;;;;;1999.90;999.90;;;15.70;99.90;;;;;;5041760;28;20029;-74
2024/03/13 11:42:14;;;;;;;1999.90;999.90;;;15.90;99.90;;;;;;5047390;28;20037;-75
2024/03/13 11:44:42;;;;;;;1999.90;999.90;;;16.00;99.90;;;;;;5046539;28;20047;-75
2024/03/13 11:47:11;;;;;;;1999.90;999.90;;;16.20;99.90;;;;;;5052521;28;20049;-75
2024/03/13 11:49:38;;;;;;;1999.90;999.90;;;15.90;99.90;;;;;;5040555;28;20037;-75
2024/03/13 11:52:05;;;;;;;1999.90;999.90;;;15.80;99.90;;;;;;5048684;28;20492;-75
2024/03/13 11:54:34;;;;;;;1999.90;999.90;;;15.70;99.90;;;;;;5037933;28;20025;-76
2024/03/13 11:57:14;;;;;;;1999.90;999.90;;;15.90;99.90;;;;;;5047224;28;20052;-74
2024/03/13 11:59:51;;;;;;;1999.90;999.90;;;16.10;99.90;;;;;;5050317;28;20411;-73
2024/03/13 12:02:32;;;;;;;1999.90;999.90;;;16.40;99.90;;;;;;5050741;28;20041;-74
2024/03/13 12:05:04;;;;;;;;;;;16.40;99.90;;;;;;5053520;28;20037;-74
2024/03/13 12:07:36;;;;;;;1999.90;999.90;;;16.60;99.90;;;;;;5039335;28;19909;-76
2024/03/13 12:10:03;;;;;;;1999.90;999.90;;;16.70;99.90;;;;;;5048007;28;20063;-83
2024/03/13 12:12:29;;;;;;;1999.90;999.90;;;16.70;99.90;;;;;;5033715;28;20048;-83
2024/03/13 12:14:55;;;;;;;1999.90;999.90;;;16.70;99.90;;;;;;5050263;28;20029;-78
2024/03/13 12:17:21;;;;;;;1999.90;999.90;;;16.50;99.90;;;;;;5052102;28;20033;-78
2024/03/13 12:19:47;;;;;;;1999.90;999.90;;;16.40;99.90;;;;;;5042037;28;20025;-77
2024/03/13 12:22:13;;;;;;;1999.90;999.90;;;16.70;99.90;;;;;;5041159;28;20392;-77
2024/03/13 12:24:40;;;;;;;1999.90;999.90;;;16.90;99.90;;;;;;5032606;28;20491;-77
2024/03/13 12:27:07;;;;;;;1999.90;999.90;;;17.10;99.90;;;;;;5046578;28;20033;-77
2024/03/13 12:29:37;;;;;;;1999.90;999.90;;;17.30;99.90;;;;;;5031454;28;20029;-77